createdAt,value
2022-08-17T00:00:42.579Z,27.78
2022-08-17T00:03:18.278Z,27.53
2022-08-17T00:05:52.659Z,27.35
2022-08-17T00:08:26.096Z,27.64
2022-08-17T00:10:55.389Z,27.59
2022-08-17T00:13:28.477Z,27.71
2022-08-17T00:16:07.374Z,27.86
2022-08-17T00:19:01.315Z,27.54
2022-08-17T00:21:25.865Z,27.27
2022-08-17T00:24:15.064Z,27.15
2022-08-17T00:26:44.993Z,27.11
2022-08-17T00:29:19.337Z,26.99
2022-08-17T00:34:16.982Z,26.95
2022-08-17T00:36:45.393Z,26.81
2022-08-17T00:39:13.854Z,26.93
2022-08-17T00:41:42.828Z,26.86
2022-08-17T00:44:12.198Z,26.99
2022-08-17T00:46:42.776Z,26.83
2022-08-17T00:49:14.494Z,26.99
2022-08-17T00:51:55.966Z,27.16
2022-08-17T00:54:33.262Z,26.87
2022-08-17T00:57:34.970Z,26.94
2022-08-17T01:00:34.667Z,27.31
2022-08-17T01:03:16.717Z,27.37
2022-08-17T01:05:47.402Z,27.36
2022-08-17T01:08:19.632Z,27.43
2022-08-17T01:10:58.882Z,27.52
2022-08-17T01:13:43.769Z,27.57
2022-08-17T01:16:20.240Z,27.60
2022-08-17T01:18:52.065Z,27.52
2022-08-17T01:21:24.541Z,27.70
2022-08-17T01:23:53.086Z,27.40
2022-08-17T01:26:22.133Z,27.26
2022-08-17T01:28:54.509Z,27.17
2022-08-17T01:31:29.290Z,27.21
2022-08-17T01:34:01.814Z,27.21
2022-08-17T01:36:30.552Z,27.18
2022-08-17T01:39:00.096Z,27.36
2022-08-17T01:41:28.781Z,27.48
2022-08-17T01:44:04.145Z,27.58
2022-08-17T01:46:36.877Z,27.65
2022-08-17T01:49:07.987Z,27.53
2022-08-17T01:51:36.686Z,27.51
2022-08-17T01:54:10.305Z,27.49
2022-08-17T01:56:42.890Z,27.57
2022-08-17T01:59:12.368Z,27.55
2022-08-17T02:01:41.466Z,27.71
2022-08-17T02:04:10.089Z,27.53
2022-08-17T02:06:52.461Z,27.50
2022-08-17T02:09:25.512Z,27.47
2022-08-17T02:11:56.323Z,27.47
2022-08-17T02:14:25.709Z,27.34
2022-08-17T02:16:54.534Z,27.35
2022-08-17T02:19:23.140Z,27.43
2022-08-17T02:21:53.774Z,27.28
2022-08-17T02:25:01.252Z,27.19
2022-08-17T02:27:15.701Z,26.94
2022-08-17T02:29:44.155Z,27.04
2022-08-17T02:32:27.841Z,26.98
2022-08-17T02:34:57.916Z,26.91
2022-08-17T02:37:28.102Z,26.90
2022-08-17T02:39:58.523Z,26.88
2022-08-17T02:42:36.981Z,26.88
2022-08-17T02:45:11.117Z,26.94
2022-08-17T02:47:40.815Z,26.88
2022-08-17T02:50:11.205Z,26.94
2022-08-17T02:52:43.734Z,26.67
2022-08-17T02:55:16.821Z,26.73
2022-08-17T02:57:45.746Z,26.77
2022-08-17T03:00:25.729Z,26.73
2022-08-17T03:02:56.440Z,26.74
2022-08-17T03:05:26.993Z,26.73
2022-08-17T03:07:56.461Z,26.62
2022-08-17T03:10:25.592Z,26.68
2022-08-17T03:12:54.301Z,26.84
2022-08-17T03:15:26.100Z,26.81
2022-08-17T03:17:54.670Z,27.00
2022-08-17T03:20:24.835Z,26.77
2022-08-17T03:22:55.872Z,26.91
2022-08-17T03:25:34.441Z,26.78
2022-08-17T03:28:03.325Z,26.84
2022-08-17T03:30:32.708Z,26.71
2022-08-17T03:33:07.127Z,26.72
2022-08-17T03:35:37.651Z,26.68
2022-08-17T03:38:07.628Z,26.98
2022-08-17T03:40:58.204Z,27.05
2022-08-17T03:43:25.817Z,27.10
2022-08-17T03:46:27.800Z,26.88
2022-08-17T03:49:25.968Z,26.79
2022-08-17T03:52:14.762Z,26.63
2022-08-17T03:55:03.133Z,26.48
2022-08-17T03:57:32.305Z,26.23
2022-08-17T04:00:00.748Z,26.36
2022-08-17T04:02:34.066Z,26.50
2022-08-17T04:05:02.580Z,26.60
2022-08-17T04:07:31.346Z,26.64
2022-08-17T04:10:00.551Z,26.53
2022-08-17T04:12:42.012Z,26.83
2022-08-17T04:15:12.540Z,26.81
2022-08-17T04:17:41.004Z,26.69
2022-08-17T04:20:10.706Z,26.71
2022-08-17T04:22:39.324Z,26.56
2022-08-17T04:25:14.992Z,25.89
2022-08-17T04:27:43.502Z,24.48
2022-08-17T04:30:12.848Z,24.08
2022-08-17T04:32:58.497Z,24.72
2022-08-17T04:35:42.333Z,25.67
2022-08-17T04:38:14.332Z,25.94
2022-08-17T04:41:01.980Z,25.56
2022-08-17T04:43:31.932Z,24.67
2022-08-17T04:46:03.283Z,25.65
2022-08-17T04:48:37.781Z,26.05
2022-08-17T04:51:16.094Z,26.17
2022-08-17T04:53:53.905Z,25.87
2022-08-17T04:56:25.795Z,25.69
2022-08-17T04:58:57.143Z,25.52
2022-08-17T05:01:27.948Z,25.55
2022-08-17T05:04:00.008Z,25.31
2022-08-17T05:06:30.987Z,25.34
2022-08-17T05:09:00.165Z,25.74
2022-08-17T05:11:29.841Z,25.90
2022-08-17T05:13:59.003Z,25.92
2022-08-17T05:16:28.792Z,25.85
2022-08-17T05:18:58.567Z,26.13
2022-08-17T05:21:27.256Z,25.75
2022-08-17T05:23:58.455Z,25.88
2022-08-17T05:26:29.291Z,26.04
2022-08-17T05:29:00.592Z,26.19
2022-08-17T05:31:31.989Z,26.37
2022-08-17T05:34:00.445Z,26.48
2022-08-17T05:36:43.191Z,26.39
2022-08-17T05:39:16.707Z,26.25
2022-08-17T05:41:47.783Z,26.20
2022-08-17T05:44:16.611Z,26.07
2022-08-17T05:46:49.801Z,26.16
2022-08-17T05:49:25.393Z,26.58
2022-08-17T05:52:19.792Z,26.87
2022-08-17T05:55:05.994Z,26.50
2022-08-17T05:58:06.593Z,26.64
2022-08-17T06:00:50.688Z,26.65
2022-08-17T06:03:28.920Z,27.25
2022-08-17T06:06:06.395Z,27.14
2022-08-17T06:09:09.929Z,27.00
2022-08-17T06:12:20.078Z,27.15
2022-08-17T06:15:33.888Z,27.05
2022-08-17T06:18:06.405Z,27.07
2022-08-17T06:20:55.857Z,27.34
2022-08-17T06:23:48.539Z,27.10
2022-08-17T06:26:38.488Z,26.84
2022-08-17T06:29:49.563Z,27.07
2022-08-17T06:32:18.236Z,26.67
2022-08-17T06:34:47.868Z,27.02
2022-08-17T06:37:48.774Z,27.42
2022-08-17T06:40:35.217Z,27.60
2022-08-17T06:43:12.537Z,27.14
2022-08-17T06:45:49.398Z,26.94
2022-08-17T06:48:36.268Z,27.06
2022-08-17T06:51:18.277Z,27.14
2022-08-17T06:54:07.027Z,27.22
2022-08-17T06:56:54.338Z,27.05
2022-08-17T06:59:54.485Z,26.98
2022-08-17T07:02:52.210Z,26.84
2022-08-17T07:05:26.532Z,26.51
2022-08-17T07:08:04.515Z,26.36
2022-08-17T07:10:44.772Z,26.25
2022-08-17T07:13:25.698Z,26.66
2022-08-17T07:16:04.658Z,26.63
2022-08-17T07:18:34.099Z,26.58
2022-08-17T07:21:17.588Z,26.24
2022-08-17T07:24:29.559Z,26.22
2022-08-17T07:27:12.905Z,25.92
2022-08-17T07:29:48.793Z,26.14
2022-08-17T07:32:22.752Z,26.76
2022-08-17T07:35:08.410Z,26.48
2022-08-17T07:37:55.645Z,26.66
2022-08-17T07:40:28.464Z,26.51
2022-08-17T07:43:18.754Z,26.67
2022-08-17T07:46:09.153Z,26.41
2022-08-17T07:48:40.896Z,26.15
2022-08-17T07:51:18.276Z,26.59
2022-08-17T07:53:47.226Z,26.47
2022-08-17T07:56:40.383Z,26.57
2022-08-17T07:59:23.558Z,26.17
2022-08-17T08:02:03.390Z,26.43
2022-08-17T08:04:59.599Z,26.02
2022-08-17T08:07:52.248Z,26.51
2022-08-17T08:10:30.337Z,26.98
2022-08-17T08:13:21.946Z,26.44
2022-08-17T08:15:54.702Z,25.86
2022-08-17T08:18:53.612Z,25.44
2022-08-17T08:21:38.054Z,26.14
2022-08-17T08:24:42.231Z,26.35
2022-08-17T08:27:20.221Z,25.75
2022-08-17T08:30:05.013Z,26.00
2022-08-17T08:32:57.655Z,26.78
2022-08-17T08:35:58.813Z,26.10
2022-08-17T08:38:30.845Z,26.63
2022-08-17T08:41:16.265Z,27.25
2022-08-17T08:44:02.543Z,27.49
2022-08-17T08:46:43.332Z,27.49
2022-08-17T08:50:02.063Z,27.00
2022-08-17T08:52:32.194Z,26.79
2022-08-17T08:55:32.410Z,27.45
2022-08-17T08:58:09.235Z,26.69
2022-08-17T09:01:00.614Z,25.96
2022-08-17T09:03:53.207Z,26.41
2022-08-17T09:06:39.730Z,26.86
2022-08-17T09:09:39.516Z,26.87
2022-08-17T09:12:38.974Z,26.77
2022-08-17T09:15:17.683Z,27.18
2022-08-17T09:19:01.473Z,26.94
2022-08-17T09:20:58.096Z,27.59
2022-08-17T09:24:06.062Z,27.52
2022-08-17T09:26:43.837Z,27.64
2022-08-17T09:29:17.358Z,27.72
2022-08-17T09:31:55.557Z,28.00
2022-08-17T09:34:43.647Z,28.32
2022-08-17T09:37:32.398Z,28.21
2022-08-17T09:40:18.153Z,27.92
2022-08-17T09:42:56.067Z,27.83
2022-08-17T09:45:35.342Z,27.85
2022-08-17T09:48:14.311Z,27.80
2022-08-17T09:51:04.639Z,27.34
2022-08-17T09:53:39.936Z,27.54
2022-08-17T09:56:25.224Z,27.40
2022-08-17T09:59:27.360Z,27.16
2022-08-17T10:02:22.525Z,26.48
2022-08-17T10:05:13.545Z,26.73
2022-08-17T10:07:57.364Z,26.49
2022-08-17T10:10:32.419Z,26.65
2022-08-17T10:13:47.198Z,27.07
2022-08-17T10:16:25.600Z,26.95
2022-08-17T10:19:08.715Z,26.79
2022-08-17T10:22:01.001Z,26.88
2022-08-17T10:25:13.513Z,26.43
2022-08-17T10:27:54.702Z,26.01
2022-08-17T10:30:26.742Z,25.79
2022-08-17T10:33:14.297Z,25.71
2022-08-17T10:35:57.829Z,25.42
2022-08-17T10:38:45.953Z,25.21
2022-08-17T10:41:41.631Z,24.96
2022-08-17T10:44:46.938Z,25.27
2022-08-17T10:47:18.385Z,25.68
2022-08-17T10:49:54.066Z,25.95
2022-08-17T10:52:25.007Z,26.09
2022-08-17T10:54:59.452Z,26.16
2022-08-17T10:57:33.781Z,26.17
2022-08-17T11:00:30.666Z,25.81
2022-08-17T11:02:59.406Z,25.55
2022-08-17T11:05:59.828Z,26.05
2022-08-17T11:08:28.195Z,26.45
2022-08-17T11:11:23.371Z,26.55
2022-08-17T11:14:31.749Z,26.60
2022-08-17T11:17:31.668Z,26.41
2022-08-17T11:20:51.912Z,26.79
2022-08-17T11:23:48.361Z,26.84
2022-08-17T11:26:28.131Z,26.91
2022-08-17T11:29:02.089Z,27.11
2022-08-17T11:31:38.550Z,27.12
2022-08-17T11:34:21.478Z,27.02
2022-08-17T11:37:01.399Z,26.94
2022-08-17T11:39:35.918Z,27.00
2022-08-17T11:42:16.554Z,27.00
2022-08-17T11:44:57.832Z,26.94
2022-08-17T11:48:26.088Z,27.29
2022-08-17T11:51:28.534Z,27.44
2022-08-17T11:54:32.136Z,27.33
2022-08-17T11:57:27.481Z,27.62
2022-08-17T12:00:00.001Z,27.47
2022-08-17T12:02:31.628Z,27.31
2022-08-17T12:05:01.904Z,27.56
2022-08-17T12:07:33.232Z,27.59
2022-08-17T12:10:02.013Z,27.56
2022-08-17T12:12:35.867Z,27.47
2022-08-17T12:15:11.900Z,27.43
2022-08-17T12:17:42.873Z,27.28
2022-08-17T12:20:34.840Z,27.25
2022-08-17T12:23:20.161Z,27.11
2022-08-17T12:25:59.301Z,27.22
2022-08-17T12:28:31.470Z,26.78
2022-08-17T12:31:07.200Z,26.58
2022-08-17T12:33:42.548Z,26.34
2022-08-17T12:36:15.112Z,26.14
2022-08-17T12:38:51.940Z,26.52
2022-08-17T12:41:42.185Z,26.45
2022-08-17T12:44:18.156Z,26.59
2022-08-17T12:46:46.585Z,26.74
2022-08-17T12:49:42.687Z,26.53
2022-08-17T12:52:25.006Z,26.57
2022-08-17T12:55:03.035Z,26.61
2022-08-17T12:57:33.545Z,26.40
2022-08-17T13:00:17.802Z,26.17
2022-08-17T13:03:13.954Z,26.08
2022-08-17T13:06:26.810Z,26.25
2022-08-17T13:08:55.322Z,26.53
2022-08-17T13:11:25.363Z,26.56
2022-08-17T13:13:56.337Z,26.55
2022-08-17T13:16:27.925Z,26.69
2022-08-17T13:19:09.069Z,26.80
2022-08-17T13:21:49.145Z,26.41
2022-08-17T13:24:25.658Z,26.54
2022-08-17T13:27:15.277Z,26.76
2022-08-17T13:29:51.313Z,26.80
2022-08-17T13:32:31.280Z,26.72
2022-08-17T13:35:35.380Z,25.74
2022-08-17T13:38:11.849Z,26.41
2022-08-17T13:40:52.922Z,26.05
2022-08-17T13:43:45.030Z,25.82
2022-08-17T13:46:19.527Z,26.33
2022-08-17T13:49:05.517Z,26.45
2022-08-17T13:51:46.192Z,26.38
2022-08-17T13:54:23.324Z,26.55
2022-08-17T13:57:01.877Z,26.14
2022-08-17T13:59:53.239Z,26.28
2022-08-17T14:02:27.233Z,26.28
2022-08-17T14:04:58.497Z,26.39
2022-08-17T14:07:31.966Z,26.55
2022-08-17T14:10:20.696Z,26.87
2022-08-17T14:12:50.238Z,26.74
2022-08-17T14:15:22.338Z,26.80
2022-08-17T14:17:52.175Z,27.14
2022-08-17T14:20:22.502Z,27.14
2022-08-17T14:22:53.177Z,27.17
2022-08-17T14:25:25.084Z,27.08
2022-08-17T14:27:55.713Z,27.14
2022-08-17T14:30:26.922Z,27.15
2022-08-17T14:32:58.778Z,27.06
2022-08-17T14:35:28.815Z,26.96
2022-08-17T14:37:57.877Z,26.59
2022-08-17T14:40:26.858Z,26.56
2022-08-17T14:42:57.670Z,26.54
2022-08-17T14:45:30.293Z,26.45
2022-08-17T14:48:04.087Z,26.49
2022-08-17T14:50:38.636Z,26.59
2022-08-17T14:53:10.581Z,26.54
2022-08-17T14:55:41.866Z,26.58
2022-08-17T14:58:10.363Z,26.53
2022-08-17T15:00:41.175Z,26.56
2022-08-17T15:03:11.427Z,26.52
2022-08-17T15:05:40.106Z,26.44
2022-08-17T15:08:08.613Z,26.39
2022-08-17T15:10:39.044Z,26.07
2022-08-17T15:13:17.534Z,25.87
2022-08-17T15:15:47.431Z,25.50
2022-08-17T15:18:16.576Z,25.54
2022-08-17T15:20:47.359Z,25.61
2022-08-17T15:23:19.553Z,25.91
2022-08-17T15:25:49.729Z,25.88
2022-08-17T15:28:20.409Z,25.70
2022-08-17T15:30:53.199Z,25.70
2022-08-17T15:33:30.328Z,25.53
2022-08-17T15:36:01.938Z,25.26
2022-08-17T15:38:33.869Z,25.54
2022-08-17T15:41:02.708Z,25.65
2022-08-17T15:43:32.565Z,25.82
2022-08-17T15:46:09.917Z,25.38
2022-08-17T15:48:41.793Z,25.48
2022-08-17T15:51:20.125Z,25.54
2022-08-17T15:53:53.327Z,25.51
2022-08-17T15:56:22.215Z,25.45
2022-08-17T15:58:51.289Z,25.12
2022-08-17T16:02:21.584Z,25.02
2022-08-17T16:04:26.810Z,25.24
2022-08-17T16:07:00.296Z,25.26
2022-08-17T16:09:28.765Z,25.20
2022-08-17T16:11:57.208Z,25.19
2022-08-17T16:14:28.884Z,25.18
2022-08-17T16:17:05.041Z,25.53
2022-08-17T16:19:53.428Z,25.81
2022-08-17T16:22:37.779Z,25.68
2022-08-17T16:25:11.139Z,25.51
2022-08-17T16:27:40.068Z,25.94
2022-08-17T16:30:14.981Z,26.23
2022-08-17T16:32:46.789Z,25.85
2022-08-17T16:35:18.177Z,25.29
2022-08-17T16:37:47.686Z,25.38
2022-08-17T16:40:17.197Z,25.92
2022-08-17T16:42:51.431Z,25.93
2022-08-17T16:45:26.513Z,26.11
2022-08-17T16:47:59.182Z,26.05
2022-08-17T16:50:27.870Z,26.02
2022-08-17T16:53:06.878Z,25.77
2022-08-17T16:55:35.865Z,25.88
2022-08-17T16:58:06.081Z,26.23
2022-08-17T17:00:36.130Z,26.46
2022-08-17T17:03:19.645Z,26.78
2022-08-17T17:06:17.044Z,26.56
2022-08-17T17:08:55.852Z,26.64
2022-08-17T17:11:33.586Z,26.83
2022-08-17T17:14:06.848Z,26.80
2022-08-17T17:16:35.247Z,26.83
2022-08-17T17:19:27.905Z,26.67
2022-08-17T17:22:29.430Z,26.86
2022-08-17T17:25:04.013Z,27.01
2022-08-17T17:27:42.796Z,26.34
2022-08-17T17:30:14.753Z,26.17
2022-08-17T17:32:49.619Z,26.22
2022-08-17T17:35:31.835Z,26.14
2022-08-17T17:38:07.614Z,26.29
2022-08-17T17:40:43.769Z,26.18
2022-08-17T17:43:37.862Z,25.79
2022-08-17T17:46:27.548Z,25.35
2022-08-17T17:48:58.290Z,25.63
2022-08-17T17:52:07.980Z,25.73
2022-08-17T17:54:36.258Z,25.60
2022-08-17T17:57:15.671Z,25.73
2022-08-17T18:00:08.668Z,25.60
2022-08-17T18:03:09.602Z,25.91
2022-08-17T18:06:08.105Z,26.06
2022-08-17T18:08:58.846Z,25.85
2022-08-17T18:11:51.643Z,25.61
2022-08-17T18:15:03.599Z,25.67
2022-08-17T18:17:33.373Z,25.54
2022-08-17T18:20:04.217Z,25.67
2022-08-17T18:22:32.744Z,25.38
2022-08-17T18:25:01.398Z,25.49
2022-08-17T18:27:36.700Z,25.29
2022-08-17T18:30:14.354Z,25.23
2022-08-17T18:32:46.364Z,24.88
2022-08-17T18:35:14.719Z,24.84
2022-08-17T18:37:57.738Z,25.00
2022-08-17T18:40:33.427Z,25.01
2022-08-17T18:43:13.260Z,25.14
2022-08-17T18:45:47.305Z,25.27
2022-08-17T18:48:24.332Z,25.30
2022-08-17T18:50:58.293Z,25.40
2022-08-17T18:53:36.192Z,25.63
2022-08-17T18:56:27.069Z,25.90
2022-08-17T18:59:27.020Z,26.13
2022-08-17T19:02:27.267Z,26.09
2022-08-17T19:05:10.023Z,25.54
2022-08-17T19:07:45.310Z,25.35
2022-08-17T19:10:23.024Z,25.41
2022-08-17T19:13:12.832Z,25.62
2022-08-17T19:16:14.571Z,24.94
2022-08-17T19:19:03.886Z,24.67
2022-08-17T19:21:44.564Z,24.77
2022-08-17T19:24:19.739Z,24.99
2022-08-17T19:26:56.564Z,25.18
2022-08-17T19:29:34.280Z,24.75
2022-08-17T19:32:06.475Z,24.43
2022-08-17T19:34:37.084Z,24.49
2022-08-17T19:37:14.555Z,24.47
2022-08-17T19:39:48.931Z,24.66
2022-08-17T19:42:31.095Z,25.04
2022-08-17T19:45:15.752Z,25.12
2022-08-17T19:48:03.155Z,24.75
2022-08-17T19:50:41.254Z,24.54
2022-08-17T19:53:41.738Z,24.77
2022-08-17T19:56:39.851Z,25.00
2022-08-17T19:59:13.267Z,24.85
2022-08-17T20:02:01.158Z,24.80
2022-08-17T20:04:31.878Z,24.80
2022-08-17T20:07:06.475Z,24.86
2022-08-17T20:09:44.371Z,24.86
2022-08-17T20:12:27.573Z,24.67
2022-08-17T20:15:04.005Z,24.60
2022-08-17T20:17:43.383Z,24.65
2022-08-17T20:20:20.849Z,24.73
2022-08-17T20:23:04.700Z,24.70
2022-08-17T20:25:46.112Z,24.86
2022-08-17T20:28:27.994Z,24.77
2022-08-17T20:30:57.648Z,24.63
2022-08-17T20:33:36.813Z,24.58
2022-08-17T20:36:11.064Z,24.84
2022-08-17T20:38:53.697Z,25.00
2022-08-17T20:41:24.642Z,25.03
2022-08-17T20:43:59.137Z,25.19
2022-08-17T20:46:45.966Z,24.93
2022-08-17T20:49:27.066Z,25.11
2022-08-17T20:52:02.331Z,24.85
2022-08-17T20:54:51.121Z,24.94
2022-08-17T20:57:32.021Z,24.89
2022-08-17T21:00:23.417Z,24.64
2022-08-17T21:03:23.462Z,24.62
2022-08-17T21:06:15.371Z,24.66
2022-08-17T21:08:57.456Z,24.61
2022-08-17T21:12:03.088Z,24.12
2022-08-17T21:14:32.614Z,24.03
2022-08-17T21:17:17.449Z,24.01
2022-08-17T21:20:14.432Z,24.11
2022-08-17T21:22:58.981Z,24.24
2022-08-17T21:25:55.382Z,24.22
2022-08-17T21:29:00.820Z,24.26
2022-08-17T21:31:37.013Z,24.22
2022-08-17T21:34:14.960Z,24.29
2022-08-17T21:36:44.955Z,24.36
2022-08-17T21:39:16.162Z,24.59
2022-08-17T21:41:55.830Z,24.59
2022-08-17T21:44:34.434Z,24.42
2022-08-17T21:47:26.417Z,24.22
2022-08-17T21:49:56.681Z,24.01
2022-08-17T21:52:27.242Z,23.86
2022-08-17T21:54:58.442Z,24.00
2022-08-17T21:57:29.902Z,23.86
2022-08-17T22:00:01.082Z,23.81
2022-08-17T22:02:37.737Z,23.67
2022-08-17T22:05:13.865Z,23.26
2022-08-17T22:07:44.264Z,23.59
2022-08-17T22:10:39.225Z,23.88
2022-08-17T22:13:29.692Z,23.93
2022-08-17T22:16:27.979Z,24.01
2022-08-17T22:19:00.824Z,24.23
2022-08-17T22:21:29.276Z,24.02
2022-08-17T22:24:04.717Z,24.23
2022-08-17T22:27:00.139Z,24.47
2022-08-17T22:29:45.580Z,24.43
2022-08-17T22:32:34.932Z,24.14
2022-08-17T22:35:28.482Z,24.16
2022-08-17T22:37:57.532Z,24.33
2022-08-17T22:40:34.391Z,24.48
2022-08-17T22:43:03.511Z,24.40
2022-08-17T22:45:33.615Z,24.26
2022-08-17T22:48:02.114Z,24.08
2022-08-17T22:50:33.197Z,23.60
2022-08-17T22:53:31.820Z,24.03
2022-08-17T22:56:35.417Z,23.89
2022-08-17T22:59:20.587Z,24.20
2022-08-17T23:02:11.676Z,24.30
2022-08-17T23:04:47.683Z,24.16
2022-08-17T23:07:17.383Z,24.01
2022-08-17T23:09:45.862Z,24.16
2022-08-17T23:12:23.946Z,24.39
2022-08-17T23:14:58.390Z,24.46
2022-08-17T23:17:32.798Z,24.57
2022-08-17T23:20:06.137Z,24.75
2022-08-17T23:22:37.245Z,24.75
2022-08-17T23:25:06.436Z,24.64
2022-08-17T23:27:34.868Z,24.75
2022-08-17T23:30:03.673Z,25.03
2022-08-17T23:32:36.165Z,25.16
2022-08-17T23:35:16.605Z,24.93
2022-08-17T23:37:45.122Z,25.05
2022-08-17T23:40:13.595Z,25.09
2022-08-17T23:42:46.431Z,25.03
2022-08-17T23:45:16.134Z,24.99
2022-08-17T23:47:45.266Z,24.98
2022-08-17T23:50:15.214Z,25.19
2022-08-17T23:52:46.600Z,25.11
2022-08-17T23:55:15.040Z,25.12
2022-08-17T23:57:44.765Z,25.09
